الصفحة الرئيسية
METAR-TAF:

METAR-TAF

مطار :

North Las Vegas Airport

نورث لاس فيغاس, نيفادا, الولايات المتحدة

دائرة عرض: 36-12-42N, خط طول: 115-11-45W, ارتفاع: 672 متر

مراقبة الطقس الحالي

تاريخ ووقت الإصدار 1ساعة و 7 دقيقة قبل الساعة 08:53UTC
ريح 5 عقدة من الغرب
درجة الحرارة 11°درجة مئوية
الرطوبة 58%
ضغط 1016 hPa
الرؤية: 16.1 كم
غيوم مفككة على ارتفاع 8000 قدم

METAR: KVGT 220853Z AUTO 27005KT 10SM BKN080 11/03 A3000 RMK AO2 SLP172 T01110033 53002

زمن: 03:00 (10:00 UTC)

توقعات

تاريخ ووقت الإصدار 4ساعات و 40 دقيقة قبل الساعة 05:20UTC
التوقعات صالحة من22 الساعة 06 UTC إلى 23 الساعة 06 UTC
ريح 8 عقدة من الغرب/الشمال الغربي
الرؤية: 10 كم
غيوم قليلة على ارتفاع 8000 قدم
غيوم مفككة على ارتفاع 12000 قدم
من 22 الساعة 1400 UTC
ريح 5 عقدةمن اتجاهات متغيرة
الرؤية: 10 كم
غيوم متفرقة على ارتفاع 10000 قدم
من 23 الساعة 0300 UTC
ريح 6 عقدة من الغرب/الشمال الغربي
الرؤية: 10 كم
غيوم مفككة على ارتفاع 20000 قدم

TAF: KVGT 220520Z 2206/2306 30008KT P6SM FEW080 BKN120 FM221400 VRB05KT P6SM SCT100 FM230300 30006KT P6SM BKN200

أرصاد الطقس والتوقعات من أكثر من 4000 مطار (تقارير الطقس للمطار METAR والتنبؤ بالطقس بالمطارTAF).

المحطات المتاحة هي النقط الصفراء والحمراء على الخريطة.

حرك المؤشر فوق النقطة لمعرفة اسم المحطة.

ثم انقر لمعرفة أرصاد وتوقعات الطقس.

لتغيير الخارطة: اضغط على الأزرار الخضراء مع رمز الصليب الأسود للتكبير. على الزر الأخضر مع شرطة للتصغير، أو على الأسهم الخضراء للخرائط المجاورة.


METAR-TAF: